Time;durP1;ratioP1;P1;durP2;ratioP2;P2;SDS_P1;SDS_P2;PMS_P1;PMS_P2;Temp;Humidity;BMP_temperature;BMP_pressure;BME280_temperature;BME280_humidity;BME280_pressure;Samples;Min_cycle;Max_cycle;Signal;HPM_P1;HPM_P2
2023/07/09 00:00:48;;;;;;;6.50;4.07;;;26.40;93.00;;;;;;4247920;27;20481;-53
2023/07/09 00:02:50;;;;;;;9.70;4.25;;;26.40;93.30;;;;;;4247724;27;20043;-54
2023/07/09 00:04:54;;;;;;;7.13;3.67;;;26.40;93.00;;;;;;4247075;27;20046;-51
2023/07/09 00:07:00;;;;;;;6.25;3.97;;;26.30;93.10;;;;;;4247538;27;20055;-53
2023/07/09 00:09:02;;;;;;;7.55;3.80;;;26.30;93.20;;;;;;4247860;27;20043;-50
2023/07/09 00:11:04;;;;;;;5.55;3.85;;;26.30;93.20;;;;;;4247744;27;20047;-51
2023/07/09 00:13:07;;;;;;;6.97;4.05;;;26.20;93.60;;;;;;4247671;27;20126;-51
2023/07/09 00:15:11;;;;;;;5.88;3.80;;;26.10;93.50;;;;;;4246876;27;20100;-50
2023/07/09 00:17:21;;;;;;;4.57;3.50;;;26.20;93.30;;;;;;4247718;27;20043;-54
2023/07/09 00:19:23;;;;;;;7.88;4.10;;;26.10;93.40;;;;;;4247589;27;20069;-55
2023/07/09 00:21:33;;;;;;;8.10;4.40;;;26.10;93.80;;;;;;4247170;27;20040;-56
2023/07/09 00:23:36;;;;;;;5.20;3.88;;;26.10;93.90;;;;;;4247606;27;20043;-53
2023/07/09 00:25:38;;;;;;;7.35;4.38;;;26.00;93.90;;;;;;4246784;27;20051;-54
2023/07/09 00:27:44;;;;;;;10.63;4.38;;;26.00;93.90;;;;;;4247394;27;20083;-54
2023/07/09 00:29:46;;;;;;;6.85;4.18;;;26.00;93.90;;;;;;4247643;27;20507;-53
2023/07/09 00:31:49;;;;;;;6.97;3.92;;;26.00;93.80;;;;;;4247316;27;20043;-54
2023/07/09 00:33:52;;;;;;;6.75;3.97;;;25.90;94.20;;;;;;4246843;27;20049;-53
2023/07/09 00:35:54;;;;;;;4.63;3.83;;;25.90;94.20;;;;;;4246112;27;20043;-55
2023/07/09 00:38:00;;;;;;;9.00;4.75;;;25.90;94.30;;;;;;4247255;27;20053;-54
2023/07/09 00:40:04;;;;;;;6.82;4.68;;;25.80;94.20;;;;;;4247458;27;20092;-51
2023/07/09 00:42:14;;;;;;;6.38;4.20;;;25.80;94.50;;;;;;4247609;27;20512;-52
2023/07/09 00:44:34;;;;;;;7.35;3.95;;;25.80;94.30;;;;;;4246574;27;20554;-52
2023/07/09 00:47:17;;;;;;;5.80;3.92;;;25.80;94.40;;;;;;4247067;28;20047;-52
2023/07/09 00:49:29;;;;;;;10.50;4.30;;;25.80;94.50;;;;;;4247187;28;20074;-53
2023/07/09 00:51:34;;;;;;;7.28;4.20;;;25.70;94.70;;;;;;4247125;28;20085;-53
2023/07/09 00:53:45;;;;;;;5.68;3.70;;;25.60;94.70;;;;;;4247555;28;20047;-49
2023/07/09 00:55:53;;;;;;;7.13;3.70;;;25.60;94.50;;;;;;4246240;28;20125;-51
2023/07/09 00:57:59;;;;;;;4.72;3.63;;;25.60;94.30;;;;;;4247191;28;20126;-53
2023/07/09 01:00:09;;;;;;;5.80;4.05;;;25.60;94.90;;;;;;4247197;28;20043;-51
2023/07/09 01:02:11;;;;;;;5.03;3.72;;;25.60;95.00;;;;;;4247209;28;20050;-53
2023/07/09 01:04:16;;;;;;;7.95;3.88;;;25.60;95.00;;;;;;4246869;28;20043;-52
2023/07/09 01:06:23;;;;;;;5.50;3.60;;;25.60;94.80;;;;;;4246648;28;20505;-52
2023/07/09 01:08:29;;;;;;;7.35;4.57;;;25.60;95.10;;;;;;4247312;28;20046;-52
2023/07/09 01:10:32;;;;;;;5.63;4.57;;;25.50;95.00;;;;;;4247218;28;20043;-53
2023/07/09 01:12:34;;;;;;;7.72;4.05;;;25.50;95.20;;;;;;4247179;28;20047;-52
2023/07/09 01:14:38;;;;;;;12.50;4.80;;;25.50;95.40;;;;;;4246263;27;20051;-52
2023/07/09 01:16:42;;;;;;;11.48;4.20;;;25.40;95.40;;;;;;4247246;28;20058;-52
2023/07/09 01:18:43;;;;;;;7.63;4.50;;;25.40;95.60;;;;;;4247126;28;20506;-51
2023/07/09 01:20:46;;;;;;;7.57;4.22;;;25.40;95.40;;;;;;4246682;28;20051;-51
2023/07/09 01:22:54;;;;;;;7.15;3.92;;;25.40;95.50;;;;;;4247212;28;20519;-52
2023/07/09 01:25:01;;;;;;;8.07;4.28;;;25.40;95.40;;;;;;4245774;27;20055;-51
2023/07/09 01:27:04;;;;;;;9.65;4.75;;;25.40;95.50;;;;;;4246942;28;20039;-54
2023/07/09 01:29:07;;;;;;;6.55;3.83;;;25.30;95.70;;;;;;4247178;28;20173;-51
2023/07/09 01:31:11;;;;;;;10.68;4.47;;;25.20;95.90;;;;;;4246888;28;20115;-51
2023/07/09 01:33:13;;;;;;;9.70;4.45;;;25.20;95.90;;;;;;4247102;28;20067;-52
2023/07/09 01:35:18;;;;;;;6.53;3.90;;;25.20;95.90;;;;;;4245862;28;20051;-51
2023/07/09 01:37:23;;;;;;;7.60;4.22;;;25.20;95.80;;;;;;4247037;28;20047;-52
2023/07/09 01:39:28;;;;;;;11.63;4.35;;;25.20;96.00;;;;;;4228829;28;20051;-53
2023/07/09 01:41:34;;;;;;;12.10;4.68;;;25.10;96.00;;;;;;4247110;28;20051;-54
2023/07/09 01:43:36;;;;;;;6.30;3.75;;;25.10;95.90;;;;;;4247253;28;20054;-53
2023/07/09 01:45:38;;;;;;;7.80;4.13;;;25.10;96.10;;;;;;4246811;27;20055;-53
2023/07/09 01:47:40;;;;;;;5.25;3.58;;;25.10;96.30;;;;;;4250164;27;20049;-51
2023/07/09 01:49:46;;;;;;;6.75;3.78;;;25.10;96.00;;;;;;4249613;27;20104;-51
2023/07/09 01:51:49;;;;;;;7.72;3.92;;;25.00;96.20;;;;;;4249807;27;20039;-54
2023/07/09 01:53:51;;;;;;;9.18;4.13;;;25.00;96.30;;;;;;4250093;27;20039;-53
2023/07/09 01:55:55;;;;;;;5.63;4.32;;;25.00;96.30;;;;;;4248937;27;20119;-53
2023/07/09 01:57:57;;;;;;;7.68;3.70;;;24.90;96.40;;;;;;4250065;27;20051;-53
2023/07/09 02:00:01;;;;;;;9.18;3.65;;;25.00;96.20;;;;;;4249679;27;20043;-52
2023/07/09 02:02:03;;;;;;;10.17;3.80;;;25.00;96.10;;;;;;4249769;27;20047;-52
2023/07/09 02:04:05;;;;;;;7.00;3.78;;;25.00;96.30;;;;;;4249489;27;20043;-52
2023/07/09 02:06:10;;;;;;;10.85;4.18;;;24.90;96.20;;;;;;4248487;27;20043;-53
2023/07/09 02:08:12;;;;;;;9.15;4.07;;;24.90;96.20;;;;;;4249749;27;20039;-53
2023/07/09 02:10:16;;;;;;;7.68;3.75;;;24.90;96.20;;;;;;4249720;27;20046;-53
2023/07/09 02:12:19;;;;;;;9.05;4.00;;;24.90;96.30;;;;;;4249448;27;20545;-53
2023/07/09 02:14:21;;;;;;;6.07;3.92;;;24.90;96.10;;;;;;4249457;27;20043;-53
2023/07/09 02:16:23;;;;;;;7.70;3.55;;;24.90;96.00;;;;;;4248837;27;20165;-51
2023/07/09 02:18:27;;;;;;;4.97;3.50;;;24.90;96.30;;;;;;4249398;27;20058;-50
2023/07/09 02:20:29;;;;;;;13.90;4.00;;;24.90;96.10;;;;;;4249461;27;20051;-52
2023/07/09 02:22:31;;;;;;;5.93;4.00;;;24.80;96.30;;;;;;4249527;27;20046;-52
2023/07/09 02:24:33;;;;;;;8.52;4.18;;;24.80;96.30;;;;;;4248491;27;20143;-52
2023/07/09 02:26:36;;;;;;;7.40;4.10;;;24.70;96.50;;;;;;4230978;28;20065;-52
2023/07/09 02:28:39;;;;;;;11.70;4.35;;;24.70;96.40;;;;;;4249342;27;20134;-52
2023/07/09 02:30:41;;;;;;;8.15;3.95;;;24.70;96.40;;;;;;4249588;27;20081;-53
2023/07/09 02:32:43;;;;;;;7.95;3.72;;;24.70;96.40;;;;;;4231122;28;20055;-52
2023/07/09 02:34:48;;;;;;;6.95;3.63;;;24.70;96.50;;;;;;4248653;27;20088;-53
2023/07/09 02:36:51;;;;;;;8.93;4.60;;;24.70;96.70;;;;;;4249327;27;20050;-53
2023/07/09 02:38:53;;;;;;;5.78;3.67;;;24.70;96.50;;;;;;4249168;27;20043;-52
2023/07/09 02:40:55;;;;;;;7.95;4.22;;;24.70;96.60;;;;;;4249086;27;20039;-53
2023/07/09 02:42:57;;;;;;;8.85;3.70;;;24.60;96.80;;;;;;4249279;27;20067;-53
2023/07/09 02:45:01;;;;;;;7.13;4.22;;;24.60;96.80;;;;;;4248574;27;20550;-53
2023/07/09 02:47:03;;;;;;;6.00;4.05;;;24.60;96.80;;;;;;4248676;27;20118;-54
2023/07/09 02:49:07;;;;;;;15.98;5.80;;;24.60;96.90;;;;;;4249055;27;20043;-52
2023/07/09 02:51:09;;;;;;;7.50;4.90;;;24.50;97.10;;;;;;4249062;27;20043;-53
2023/07/09 02:53:11;;;;;;;6.20;4.55;;;24.50;97.30;;;;;;4249404;27;20047;-56
2023/07/09 02:55:13;;;;;;;8.57;5.05;;;24.50;97.40;;;;;;4248143;27;20047;-55
2023/07/09 02:57:15;;;;;;;9.00;6.45;;;24.50;97.00;;;;;;4247963;27;20246;-55
2023/07/09 02:59:17;;;;;;;8.35;6.50;;;24.50;97.10;;;;;;4248939;27;20193;-55
2023/07/09 03:01:24;;;;;;;11.88;7.07;;;24.50;97.40;;;;;;4248394;27;20088;-55
2023/07/09 03:03:28;;;;;;;10.38;6.20;;;24.50;98.00;;;;;;4248967;27;20078;-50
2023/07/09 03:05:30;;;;;;;11.75;6.50;;;24.40;97.80;;;;;;4247892;27;20047;-52
2023/07/09 03:07:32;;;;;;;9.20;6.28;;;24.40;98.00;;;;;;4248639;27;20049;-53
2023/07/09 03:09:34;;;;;;;11.75;6.50;;;24.40;98.10;;;;;;4248666;27;20459;-53
2023/07/09 03:11:36;;;;;;;10.32;5.65;;;24.40;98.10;;;;;;4248910;27;20126;-51
2023/07/09 03:13:38;;;;;;;11.05;5.75;;;24.30;98.60;;;;;;4248695;27;20047;-52
2023/07/09 03:15:41;;;;;;;7.93;4.80;;;24.30;98.60;;;;;;4247514;27;20062;-52
2023/07/09 03:17:44;;;;;;;11.00;4.43;;;24.30;98.60;;;;;;4248548;27;20043;-53
2023/07/09 03:19:46;;;;;;;13.48;4.65;;;24.20;98.90;;;;;;4248424;27;20047;-52
2023/07/09 03:21:48;;;;;;;7.88;4.47;;;24.20;98.90;;;;;;4248658;27;20046;-52
2023/07/09 03:23:50;;;;;;;7.80;4.70;;;24.10;98.70;;;;;;4230146;28;20153;-51
2023/07/09 03:25:54;;;;;;;8.50;4.72;;;24.10;98.70;;;;;;4247369;27;20074;-54
2023/07/09 03:27:56;;;;;;;11.43;4.40;;;24.20;98.40;;;;;;4248508;27;20534;-54
2023/07/09 03:29:58;;;;;;;14.52;4.35;;;24.20;98.70;;;;;;4248149;27;20054;-54
2023/07/09 03:32:00;;;;;;;9.85;4.40;;;24.10;98.80;;;;;;4248496;27;20043;-53
2023/07/09 03:34:03;;;;;;;9.18;4.63;;;24.10;98.90;;;;;;4248185;27;20108;-53
2023/07/09 03:36:06;;;;;;;10.95;4.45;;;24.00;98.90;;;;;;4247343;27;20062;-52
2023/07/09 03:38:10;;;;;;;12.07;4.13;;;24.00;98.90;;;;;;4248160;27;20050;-52
2023/07/09 03:40:21;;;;;;;10.77;4.80;;;24.10;98.60;;;;;;4248235;27;20039;-52
2023/07/09 03:42:23;;;;;;;9.23;3.85;;;24.10;98.80;;;;;;4248442;27;20456;-55
2023/07/09 03:44:25;;;;;;;8.77;4.40;;;24.00;98.80;;;;;;4247921;27;20111;-56
2023/07/09 03:46:27;;;;;;;6.85;4.32;;;24.00;99.00;;;;;;4247416;27;20406;-50
2023/07/09 03:48:29;;;;;;;9.25;3.90;;;24.00;99.10;;;;;;4229732;28;20096;-52
2023/07/09 03:50:33;;;;;;;6.93;4.22;;;23.90;99.00;;;;;;4248088;27;20054;-50
2023/07/09 03:52:35;;;;;;;10.80;4.63;;;24.00;98.90;;;;;;4248086;27;20606;-51
2023/07/09 03:54:37;;;;;;;13.40;5.07;;;23.90;99.30;;;;;;4247874;27;20200;-51
2023/07/09 03:56:39;;;;;;;10.35;4.70;;;23.90;99.20;;;;;;4247012;27;20119;-50
2023/07/09 03:58:41;;;;;;;9.90;4.57;;;23.90;99.40;;;;;;4247862;27;20474;-52
2023/07/09 04:00:44;;;;;;;11.10;4.68;;;23.80;99.60;;;;;;4247476;27;20066;-54
2023/07/09 04:02:46;;;;;;;9.63;4.50;;;23.80;99.60;;;;;;4247758;27;20049;-55
2023/07/09 04:04:49;;;;;;;9.10;4.10;;;23.80;99.60;;;;;;4247352;27;20035;-54
2023/07/09 04:06:52;;;;;;;8.10;4.05;;;23.80;99.50;;;;;;4229342;28;20148;-54
2023/07/09 04:08:54;;;;;;;8.55;4.10;;;23.80;99.60;;;;;;4247823;27;20039;-56
2023/07/09 04:10:59;;;;;;;7.47;3.90;;;23.80;99.40;;;;;;4247846;27;20047;-52
2023/07/09 04:13:01;;;;;;;7.45;4.28;;;23.80;99.50;;;;;;4247652;27;20118;-52
2023/07/09 04:15:05;;;;;;;7.88;4.30;;;23.70;99.40;;;;;;4246667;27;20402;-52
2023/07/09 04:17:07;;;;;;;8.50;4.40;;;23.80;99.40;;;;;;4247534;27;20065;-51
2023/07/09 04:19:09;;;;;;;8.60;3.88;;;23.70;99.50;;;;;;4247595;27;20159;-51
2023/07/09 04:21:11;;;;;;;6.10;4.00;;;23.80;99.60;;;;;;4247658;27;20071;-52
2023/07/09 04:23:15;;;;;;;8.32;4.38;;;23.80;99.40;;;;;;4247535;27;20073;-52
2023/07/09 04:25:17;;;;;;;9.48;4.20;;;23.80;99.50;;;;;;4246590;27;20078;-54
2023/07/09 04:27:19;;;;;;;7.22;4.13;;;23.80;99.50;;;;;;4247247;27;20043;-51
2023/07/09 04:29:22;;;;;;;9.50;4.15;;;23.80;99.30;;;;;;4247230;27;20049;-52
2023/07/09 04:31:24;;;;;;;9.05;4.18;;;23.70;99.40;;;;;;4247336;27;20460;-52
2023/07/09 04:33:26;;;;;;;10.85;4.35;;;23.80;99.40;;;;;;4247547;27;20835;-52
2023/07/09 04:35:28;;;;;;;7.00;3.90;;;23.80;99.30;;;;;;4246449;27;20054;-52
2023/07/09 04:37:30;;;;;;;9.15;4.03;;;23.70;99.10;;;;;;4247443;27;20039;-53
2023/07/09 04:39:33;;;;;;;9.10;4.40;;;23.80;99.20;;;;;;4247481;27;20083;-51
2023/07/09 04:41:35;;;;;;;5.95;3.92;;;23.80;99.30;;;;;;4247274;27;20067;-54
2023/07/09 04:43:37;;;;;;;5.70;3.53;;;23.80;99.20;;;;;;4246984;27;20050;-53
2023/07/09 04:45:39;;;;;;;9.13;3.97;;;23.80;99.10;;;;;;4246741;27;20047;-53
2023/07/09 04:47:41;;;;;;;7.00;4.20;;;23.80;99.00;;;;;;4247294;28;20065;-53
2023/07/09 04:49:44;;;;;;;7.97;3.88;;;23.90;98.80;;;;;;4247228;28;20100;-50
2023/07/09 04:51:46;;;;;;;7.38;3.42;;;23.90;99.00;;;;;;4247483;28;20043;-55
2023/07/09 04:53:51;;;;;;;6.53;3.47;;;23.90;98.90;;;;;;4247175;28;20051;-56
2023/07/09 04:55:55;;;;;;;7.72;4.00;;;23.90;99.10;;;;;;4246610;28;20047;-56
2023/07/09 04:57:57;;;;;;;8.15;4.18;;;23.90;98.90;;;;;;4246991;27;20047;-51
2023/07/09 05:00:00;;;;;;;10.13;4.65;;;23.90;98.70;;;;;;4247267;28;20126;-50
2023/07/09 05:02:03;;;;;;;7.50;3.88;;;23.90;98.80;;;;;;4247220;27;20039;-53
2023/07/09 05:04:06;;;;;;;7.07;3.80;;;23.90;99.10;;;;;;4247392;28;20126;-53
2023/07/09 05:06:08;;;;;;;11.57;4.38;;;24.00;98.70;;;;;;4246076;28;20047;-53
2023/07/09 05:08:11;;;;;;;13.15;4.28;;;23.90;98.50;;;;;;4247144;27;20043;-54
2023/07/09 05:10:13;;;;;;;6.90;3.63;;;24.00;98.60;;;;;;4247246;28;20398;-53
2023/07/09 05:12:17;;;;;;;7.00;4.03;;;24.00;98.50;;;;;;4246740;28;20046;-53
2023/07/09 05:14:19;;;;;;;6.95;4.10;;;24.00;98.40;;;;;;4247284;28;20121;-51
2023/07/09 05:16:21;;;;;;;5.45;3.50;;;24.00;98.30;;;;;;4246162;27;20492;-51
2023/07/09 05:18:26;;;;;;;8.68;3.95;;;24.10;98.10;;;;;;4247231;28;20123;-51
2023/07/09 05:20:28;;;;;;;6.95;4.20;;;24.10;97.50;;;;;;4247524;27;20111;-52
2023/07/09 05:22:30;;;;;;;5.80;3.60;;;24.10;97.20;;;;;;4250443;27;20047;-51
2023/07/09 05:24:32;;;;;;;7.53;3.97;;;24.20;97.10;;;;;;4250133;27;20057;-51
2023/07/09 05:26:34;;;;;;;9.18;3.83;;;24.20;96.90;;;;;;4249339;27;20070;-51
2023/07/09 05:28:37;;;;;;;5.78;3.75;;;24.30;96.60;;;;;;4250217;27;20047;-51
2023/07/09 05:30:41;;;;;;;5.70;3.80;;;24.30;96.30;;;;;;4250529;27;20043;-52
2023/07/09 05:32:44;;;;;;;9.17;3.80;;;24.30;96.00;;;;;;4250464;27;20047;-50
2023/07/09 05:34:46;;;;;;;5.38;3.42;;;24.20;95.70;;;;;;4250361;27;20047;-52
2023/07/09 05:36:48;;;;;;;6.13;3.67;;;24.30;95.50;;;;;;4249602;27;20039;-53
2023/07/09 05:38:50;;;;;;;8.35;3.80;;;24.20;95.40;;;;;;4250088;27;20092;-52
2023/07/09 05:41:00;;;;;;;5.40;3.50;;;24.30;95.40;;;;;;4249800;27;20074;-53
2023/07/09 05:43:03;;;;;;;6.55;3.60;;;24.30;95.20;;;;;;4250317;27;20158;-51
2023/07/09 05:45:07;;;;;;;8.57;4.07;;;24.30;95.00;;;;;;4249965;27;20054;-52
2023/07/09 05:47:09;;;;;;;5.95;3.70;;;24.20;95.10;;;;;;4249564;27;20066;-51
2023/07/09 05:49:11;;;;;;;6.35;4.07;;;24.30;95.10;;;;;;4250243;27;20126;-55
2023/07/09 05:51:15;;;;;;;7.25;3.50;;;24.40;95.00;;;;;;4250169;27;20078;-55
2023/07/09 05:53:17;;;;;;;8.77;4.25;;;24.30;94.90;;;;;;4250074;27;20081;-57
2023/07/09 05:55:19;;;;;;;7.50;3.90;;;24.40;94.70;;;;;;4230906;28;20048;-56
2023/07/09 05:57:22;;;;;;;6.10;3.47;;;24.40;94.60;;;;;;4249801;27;20079;-53
2023/07/09 05:59:24;;;;;;;4.13;3.30;;;24.40;94.70;;;;;;4249911;27;20069;-51
2023/07/09 06:01:27;;;;;;;8.68;3.50;;;24.40;94.60;;;;;;4231486;28;20086;-52
2023/07/09 06:03:30;;;;;;;7.65;4.03;;;24.40;94.50;;;;;;4249722;27;20107;-53
2023/07/09 06:05:32;;;;;;;5.03;3.33;;;24.60;94.40;;;;;;4249004;27;20051;-51
2023/07/09 06:07:34;;;;;;;6.70;4.15;;;24.60;94.40;;;;;;4249751;27;20085;-49
2023/07/09 06:09:36;;;;;;;6.43;3.50;;;24.60;94.30;;;;;;4249541;27;20043;-49
2023/07/09 06:11:38;;;;;;;8.27;3.42;;;24.60;94.10;;;;;;4249694;27;20405;-50
2023/07/09 06:13:41;;;;;;;5.75;3.80;;;24.70;94.00;;;;;;4249532;27;20579;-48
2023/07/09 06:15:43;;;;;;;8.10;4.13;;;24.70;94.00;;;;;;4248866;27;20061;-50
2023/07/09 06:17:47;;;;;;;6.25;3.75;;;24.70;93.90;;;;;;4249463;27;20122;-50
2023/07/09 06:19:49;;;;;;;7.70;3.83;;;24.70;94.00;;;;;;4249451;27;20054;-53
2023/07/09 06:21:51;;;;;;;6.25;3.78;;;24.70;94.00;;;;;;4249637;27;20051;-51
2023/07/09 06:23:53;;;;;;;8.02;3.72;;;24.70;93.90;;;;;;4249520;27;20044;-53
2023/07/09 06:25:55;;;;;;;6.15;3.25;;;24.70;93.90;;;;;;4248545;27;20076;-52
2023/07/09 06:27:57;;;;;;;6.85;3.70;;;24.70;93.80;;;;;;4249263;27;20042;-50
2023/07/09 06:29:59;;;;;;;5.25;3.50;;;24.80;93.70;;;;;;4231007;28;20055;-52
2023/07/09 06:32:01;;;;;;;5.55;3.22;;;24.70;93.70;;;;;;4249213;27;20391;-52
2023/07/09 06:34:07;;;;;;;6.05;3.50;;;24.70;93.60;;;;;;4249319;27;20065;-52
2023/07/09 06:36:09;;;;;;;4.50;3.50;;;24.70;93.70;;;;;;4248389;27;20175;-53
2023/07/09 06:38:11;;;;;;;6.60;3.75;;;24.70;93.70;;;;;;4249304;27;20047;-52
2023/07/09 06:40:13;;;;;;;5.10;3.20;;;24.70;93.60;;;;;;4248697;27;20558;-50
2023/07/09 06:42:15;;;;;;;4.90;3.35;;;24.60;93.70;;;;;;4249131;27;20425;-50
2023/07/09 06:44:17;;;;;;;6.35;3.65;;;24.70;93.70;;;;;;4249302;27;20443;-49
2023/07/09 06:46:20;;;;;;;7.28;3.70;;;24.80;93.50;;;;;;4248184;27;20047;-51
2023/07/09 06:48:23;;;;;;;6.68;3.67;;;24.80;93.50;;;;;;4249078;27;20099;-49
2023/07/09 06:50:26;;;;;;;4.85;3.60;;;24.90;93.40;;;;;;4249177;27;20435;-50
2023/07/09 06:52:28;;;;;;;6.18;3.47;;;25.00;93.60;;;;;;4248870;27;20067;-52
2023/07/09 06:54:33;;;;;;;8.32;3.30;;;25.10;93.30;;;;;;4248834;27;20409;-52
2023/07/09 06:56:35;;;;;;;7.68;3.30;;;25.20;93.20;;;;;;4247924;27;20120;-51
2023/07/09 06:58:37;;;;;;;6.50;3.55;;;25.20;93.10;;;;;;4248743;27;20061;-50
2023/07/09 07:00:40;;;;;;;6.25;3.35;;;25.30;93.10;;;;;;4248761;27;20051;-49
2023/07/09 07:02:42;;;;;;;6.63;3.17;;;25.30;93.10;;;;;;4248605;27;20137;-51
2023/07/09 07:04:44;;;;;;;4.13;3.10;;;25.30;93.00;;;;;;4248726;27;20047;-48
2023/07/09 07:06:47;;;;;;;5.55;3.08;;;25.30;92.90;;;;;;4247629;27;20050;-51
2023/07/09 07:08:52;;;;;;;6.43;2.92;;;25.20;92.80;;;;;;4248436;27;20126;-51
2023/07/09 07:11:01;;;;;;;3.92;3.00;;;25.30;92.80;;;;;;4248726;27;20067;-52
2023/07/09 07:13:03;;;;;;;4.57;2.72;;;25.40;92.90;;;;;;4248735;27;20069;-53
2023/07/09 07:15:06;;;;;;;5.75;3.40;;;25.60;92.70;;;;;;4248652;27;20397;-51
2023/07/09 07:17:08;;;;;;;5.88;2.90;;;25.80;92.50;;;;;;4247735;27;20398;-52
2023/07/09 07:19:10;;;;;;;6.80;3.35;;;25.90;92.40;;;;;;4248731;27;20039;-53
2023/07/09 07:21:12;;;;;;;4.25;2.88;;;25.90;92.40;;;;;;4248732;27;20054;-50
2023/07/09 07:23:16;;;;;;;5.15;3.13;;;26.00;92.40;;;;;;4229978;28;20040;-50
2023/07/09 07:25:18;;;;;;;5.45;3.13;;;26.10;92.50;;;;;;4248244;27;20529;-50
2023/07/09 07:27:20;;;;;;;11.50;4.32;;;26.20;92.30;;;;;;4247539;27;20126;-50
2023/07/09 07:29:22;;;;;;;3.45;2.83;;;26.30;92.20;;;;;;4248533;27;20118;-51
2023/07/09 07:31:25;;;;;;;4.35;3.00;;;26.30;92.20;;;;;;4248434;27;20075;-51
2023/07/09 07:33:27;;;;;;;4.03;3.10;;;26.40;92.30;;;;;;4248499;27;20047;-50
2023/07/09 07:35:29;;;;;;;7.80;3.55;;;26.40;92.00;;;;;;4248337;27;20195;-50
2023/07/09 07:37:31;;;;;;;4.35;3.38;;;26.40;91.90;;;;;;4247091;27;20050;-51
2023/07/09 07:39:34;;;;;;;6.25;3.10;;;26.30;92.20;;;;;;4248146;27;20039;-50
2023/07/09 07:41:37;;;;;;;5.95;3.17;;;26.30;92.30;;;;;;4248021;27;20073;-49
2023/07/09 07:43:39;;;;;;;5.70;3.28;;;26.20;92.40;;;;;;4247849;27;20053;-50
2023/07/09 07:45:41;;;;;;;3.97;3.05;;;26.10;92.50;;;;;;4247371;27;20046;-52
2023/07/09 07:47:43;;;;;;;7.55;3.20;;;26.10;92.50;;;;;;4248132;27;20066;-52
2023/07/09 07:49:45;;;;;;;5.57;3.53;;;26.20;92.50;;;;;;4248278;27;20126;-53
2023/07/09 07:51:48;;;;;;;4.68;3.13;;;26.10;92.60;;;;;;4247852;27;20412;-53
2023/07/09 07:53:50;;;;;;;6.95;3.60;;;26.00;92.60;;;;;;4248259;27;20047;-53
2023/07/09 07:55:53;;;;;;;5.00;3.55;;;26.00;92.60;;;;;;4247396;27;20130;-51
2023/07/09 07:57:56;;;;;;;6.18;3.88;;;25.90;92.80;;;;;;4248124;27;20439;-52
2023/07/09 07:59:59;;;;;;;5.57;3.08;;;25.80;92.90;;;;;;4247958;27;20043;-52
2023/07/09 08:02:06;;;;;;;6.15;3.30;;;25.60;93.00;;;;;;4247833;27;20092;-52
2023/07/09 08:04:08;;;;;;;4.53;3.15;;;25.50;93.10;;;;;;4247965;27;20047;-51
2023/07/09 08:06:11;;;;;;;5.90;3.38;;;25.50;93.10;;;;;;4246587;27;20096;-54
2023/07/09 08:08:14;;;;;;;6.03;3.13;;;25.40;93.10;;;;;;4247930;27;20043;-53
2023/07/09 08:10:16;;;;;;;7.20;3.75;;;25.40;93.10;;;;;;4247726;27;20074;-51
2023/07/09 08:12:19;;;;;;;5.78;3.38;;;25.40;93.10;;;;;;4247693;27;20043;-52
2023/07/09 08:14:22;;;;;;;6.45;3.35;;;25.30;93.10;;;;;;4247902;27;20066;-53
2023/07/09 08:16:24;;;;;;;7.05;3.45;;;25.30;93.10;;;;;;4246729;27;20047;-53
2023/07/09 08:18:26;;;;;;;7.57;3.75;;;25.10;93.30;;;;;;4247728;27;20054;-51
2023/07/09 08:20:28;;;;;;;6.35;3.40;;;25.00;93.40;;;;;;4247425;27;20099;-53
2023/07/09 08:22:30;;;;;;;7.55;3.10;;;25.00;93.50;;;;;;4247413;27;20048;-53
2023/07/09 08:24:32;;;;;;;5.85;3.38;;;24.90;93.50;;;;;;4247464;27;20051;-52
2023/07/09 08:26:37;;;;;;;7.32;3.72;;;25.00;93.50;;;;;;4246539;27;20073;-53
2023/07/09 08:28:41;;;;;;;6.90;3.42;;;24.90;93.70;;;;;;4247402;27;20039;-52
2023/07/09 08:30:43;;;;;;;12.55;3.85;;;24.90;93.80;;;;;;4247297;27;20154;-51
2023/07/09 08:32:45;;;;;;;11.00;3.92;;;24.90;93.90;;;;;;4247716;27;20053;-53
2023/07/09 08:34:47;;;;;;;6.85;3.47;;;24.90;93.90;;;;;;4247194;27;20039;-53
2023/07/09 08:37:09;;;;;;;8.23;3.58;;;24.90;93.90;;;;;;4246484;27;20039;-51
2023/07/09 08:39:11;;;;;;;13.02;4.63;;;25.00;93.90;;;;;;4247477;27;20482;-52
2023/07/09 08:41:31;;;;;;;12.25;3.85;;;25.10;93.90;;;;;;4247359;27;20071;-55
2023/07/09 08:43:39;;;;;;;8.85;3.92;;;25.00;94.10;;;;;;4247524;27;20201;-54
2023/07/09 08:45:50;;;;;;;8.02;4.40;;;25.10;94.20;;;;;;4247529;27;20517;-55
2023/07/09 08:48:00;;;;;;;7.85;3.97;;;25.10;94.20;;;;;;4247194;27;20538;-54
2023/07/09 08:50:07;;;;;;;7.80;3.90;;;25.30;94.30;;;;;;4247156;28;20054;-54
2023/07/09 08:52:15;;;;;;;9.07;4.00;;;25.20;94.70;;;;;;4247214;28;20050;-52
2023/07/09 08:54:24;;;;;;;8.02;4.13;;;25.30;94.50;;;;;;4247173;27;20050;-52
2023/07/09 08:56:33;;;;;;;7.82;3.55;;;25.30;94.30;;;;;;4248903;27;20122;-53
2023/07/09 08:58:37;;;;;;;9.02;3.50;;;25.30;94.40;;;;;;4250737;27;20043;-52
2023/07/09 09:00:47;;;;;;;13.90;3.90;;;25.40;94.50;;;;;;4250802;27;20066;-53
2023/07/09 09:02:53;;;;;;;5.22;3.80;;;25.40;94.20;;;;;;4250787;27;20134;-52
2023/07/09 09:04:55;;;;;;;9.80;3.90;;;25.40;94.20;;;;;;4250710;27;20064;-52
2023/07/09 09:07:06;;;;;;;7.45;4.10;;;25.40;94.10;;;;;;4249784;27;20039;-53
2023/07/09 09:09:21;;;;;;;9.38;3.65;;;25.40;94.10;;;;;;4250840;27;20043;-52
2023/07/09 09:11:33;;;;;;;6.80;4.07;;;25.30;94.30;;;;;;4250685;27;20406;-54
2023/07/09 09:13:38;;;;;;;5.40;3.58;;;25.20;94.30;;;;;;4250600;27;20451;-52
2023/07/09 09:15:45;;;;;;;15.15;4.80;;;25.20;94.30;;;;;;4250548;27;20043;-51
2023/07/09 09:17:57;;;;;;;7.88;3.65;;;25.20;94.20;;;;;;4250112;27;20054;-52
2023/07/09 09:20:00;;;;;;;6.85;3.65;;;25.20;94.30;;;;;;4250318;27;20070;-53
2023/07/09 09:22:08;;;;;;;7.25;3.70;;;25.10;94.40;;;;;;4250444;27;20055;-51
2023/07/09 09:24:16;;;;;;;9.05;4.20;;;25.10;94.40;;;;;;4250366;27;20059;-53
2023/07/09 09:26:23;;;;;;;9.75;3.70;;;25.00;94.50;;;;;;4231379;28;20043;-51
2023/07/09 09:28:27;;;;;;;7.97;3.80;;;24.80;94.60;;;;;;4250269;27;20112;-53
2023/07/09 09:30:30;;;;;;;5.55;3.58;;;24.70;94.70;;;;;;4250545;27;20047;-51
2023/07/09 09:32:43;;;;;;;8.93;4.30;;;24.70;94.70;;;;;;4250159;27;20476;-52
2023/07/09 09:34:45;;;;;;;5.05;3.45;;;24.70;94.70;;;;;;4250523;27;20050;-52
2023/07/09 09:36:48;;;;;;;7.15;3.67;;;24.70;94.60;;;;;;4231333;28;20112;-52
2023/07/09 09:38:50;;;;;;;6.85;4.07;;;24.70;94.30;;;;;;4250207;27;20044;-52
2023/07/09 09:41:00;;;;;;;8.30;4.18;;;24.80;94.50;;;;;;4250172;27;20043;-54
2023/07/09 09:43:13;;;;;;;5.93;4.13;;;24.90;94.30;;;;;;4250243;27;20409;-51
2023/07/09 09:45:20;;;;;;;7.15;3.95;;;25.00;94.10;;;;;;4250181;27;20043;-53
2023/07/09 09:47:27;;;;;;;5.68;3.40;;;25.10;94.00;;;;;;4249024;27;20047;-54
2023/07/09 09:49:38;;;;;;;8.73;3.83;;;25.10;93.90;;;;;;4250077;27;20070;-54
2023/07/09 09:51:44;;;;;;;4.97;3.28;;;25.20;93.90;;;;;;4231877;28;20051;-51
2023/07/09 09:53:50;;;;;;;10.45;3.90;;;25.20;94.00;;;;;;4249948;27;20117;-52
2023/07/09 09:55:55;;;;;;;4.30;3.00;;;25.20;94.20;;;;;;4250152;27;20039;-52
2023/07/09 09:57:58;;;;;;;5.65;3.60;;;25.20;94.10;;;;;;4249378;27;20478;-52
2023/07/09 10:00:00;;;;;;;4.95;3.35;;;25.30;94.20;;;;;;4250055;27;20049;-54
2023/07/09 10:02:15;;;;;;;9.63;4.65;;;25.30;94.50;;;;;;4249705;27;20469;-54
2023/07/09 10:04:19;;;;;;;12.52;6.50;;;25.40;94.60;;;;;;4250072;27;20043;-53
2023/07/09 10:06:32;;;;;;;15.48;6.10;;;25.30;95.40;;;;;;4248591;27;20912;-53
2023/07/09 10:08:51;;;;;;;10.77;5.80;;;25.30;95.60;;;;;;4249618;27;20129;-51
2023/07/09 10:10:57;;;;;;;7.55;4.72;;;25.40;95.90;;;;;;4249807;27;20070;-52
2023/07/09 10:13:09;;;;;;;12.98;7.13;;;25.30;95.30;;;;;;4249583;27;20092;-51
2023/07/09 10:15:19;;;;;;;8.98;6.57;;;25.30;95.20;;;;;;4249677;27;20160;-52
2023/07/09 10:17:30;;;;;;;13.23;5.85;;;25.30;95.90;;;;;;4248206;27;20144;-53
2023/07/09 10:19:39;;;;;;;13.10;5.88;;;25.30;96.10;;;;;;4249528;27;20049;-51
2023/07/09 10:21:46;;;;;;;8.07;3.83;;;25.20;96.80;;;;;;4249424;27;20051;-52
2023/07/09 10:24:05;;;;;;;8.88;4.28;;;25.20;95.60;;;;;;4248581;27;20126;-53
2023/07/09 10:26:13;;;;;;;6.75;4.38;;;25.20;96.20;;;;;;4248955;27;20039;-54
2023/07/09 10:28:35;;;;;;;9.02;4.72;;;25.10;96.00;;;;;;4249157;27;20050;-53
2023/07/09 10:30:47;;;;;;;11.18;4.55;;;24.90;95.60;;;;;;4248925;27;20043;-53
2023/07/09 10:33:02;;;;;;;8.35;4.72;;;24.90;96.30;;;;;;4249331;27;20054;-54
2023/07/09 10:35:07;;;;;;;;;;;24.80;96.40;;;;;;4250167;27;20069;-51
2023/07/09 10:37:35;;;;;;;13.85;9.65;;;24.80;96.80;;;;;;4248415;27;20366;-53
2023/07/09 10:39:42;;;;;;;9.57;5.80;;;24.90;96.70;;;;;;4249412;27;20088;-52
2023/07/09 10:41:48;;;;;;;8.45;5.43;;;24.90;96.70;;;;;;4249329;27;20043;-52
2023/07/09 10:43:57;;;;;;;14.15;5.00;;;25.10;96.30;;;;;;4249162;27;20074;-53
2023/07/09 10:46:03;;;;;;;6.63;3.95;;;25.10;96.00;;;;;;4230582;28;20118;-50